sensor_id;sensor_type;location;lat;lon;timestamp;pressure;altitude;pressure_sealevel;temperature;humidity
59110;BME280;44895;47.438;18.978;2023-07-13T00:01:28;99761.66;;;23.61;100.00
59110;BME280;44895;47.438;18.978;2023-07-13T00:04:32;99751.41;;;23.65;100.00
59110;BME280;44895;47.438;18.978;2023-07-13T00:07:36;99756.97;;;23.80;100.00
59110;BME280;44895;47.438;18.978;2023-07-13T00:10:41;99737.97;;;23.82;100.00
59110;BME280;44895;47.438;18.978;2023-07-13T00:13:45;99730.13;;;24.02;100.00
59110;BME280;44895;47.438;18.978;2023-07-13T00:16:49;99715.84;;;24.10;100.00
59110;BME280;44895;47.438;18.978;2023-07-13T00:19:55;99710.31;;;24.10;100.00
59110;BME280;44895;47.438;18.978;2023-07-13T00:23:00;99691.69;;;24.07;100.00
59110;BME280;44895;47.438;18.978;2023-07-13T00:26:07;99685.34;;;24.03;100.00
59110;BME280;44895;47.438;18.978;2023-07-13T00:29:12;99676.63;;;24.01;100.00
59110;BME280;44895;47.438;18.978;2023-07-13T00:32:16;99678.63;;;23.97;100.00
59110;BME280;44895;47.438;18.978;2023-07-13T00:35:20;99669.47;;;23.89;100.00
59110;BME280;44895;47.438;18.978;2023-07-13T00:38:24;99662.31;;;23.85;100.00
59110;BME280;44895;47.438;18.978;2023-07-13T00:41:28;99663.09;;;23.71;100.00
59110;BME280;44895;47.438;18.978;2023-07-13T00:44:32;99667.84;;;23.63;100.00
59110;BME280;44895;47.438;18.978;2023-07-13T00:47:36;99669.41;;;23.60;100.00
59110;BME280;44895;47.438;18.978;2023-07-13T00:50:41;99670.59;;;23.56;100.00
59110;BME280;44895;47.438;18.978;2023-07-13T00:53:46;99652.75;;;23.39;100.00
59110;BME280;44895;47.438;18.978;2023-07-13T00:56:52;99640.84;;;23.38;100.00
59110;BME280;44895;47.438;18.978;2023-07-13T00:59:59;99654.34;;;23.43;100.00
59110;BME280;44895;47.438;18.978;2023-07-13T01:03:10;99644.44;;;23.39;100.00
59110;BME280;44895;47.438;18.978;2023-07-13T01:06:14;99644.03;;;23.29;100.00
59110;BME280;44895;47.438;18.978;2023-07-13T01:09:19;99651.88;;;23.20;100.00
59110;BME280;44895;47.438;18.978;2023-07-13T01:12:24;99642.00;;;23.16;100.00
59110;BME280;44895;47.438;18.978;2023-07-13T01:18:37;99649.41;;;23.08;100.00
59110;BME280;44895;47.438;18.978;2023-07-13T01:21:42;99640.28;;;22.96;100.00
59110;BME280;44895;47.438;18.978;2023-07-13T01:24:47;99651.38;;;23.00;100.00
59110;BME280;44895;47.438;18.978;2023-07-13T01:27:53;99651.34;;;22.93;100.00
59110;BME280;44895;47.438;18.978;2023-07-13T01:30:58;99642.56;;;22.76;100.00
59110;BME280;44895;47.438;18.978;2023-07-13T01:34:02;99653.09;;;22.53;100.00
59110;BME280;44895;47.438;18.978;2023-07-13T01:37:06;99646.34;;;22.46;100.00
59110;BME280;44895;47.438;18.978;2023-07-13T01:40:12;99630.03;;;22.34;100.00
59110;BME280;44895;47.438;18.978;2023-07-13T01:43:16;99631.84;;;22.12;100.00
59110;BME280;44895;47.438;18.978;2023-07-13T01:46:22;99629.41;;;22.03;100.00
59110;BME280;44895;47.438;18.978;2023-07-13T01:49:26;99619.88;;;21.97;100.00
59110;BME280;44895;47.438;18.978;2023-07-13T01:52:30;99619.47;;;21.95;100.00
59110;BME280;44895;47.438;18.978;2023-07-13T01:55:35;99618.81;;;22.12;100.00
59110;BME280;44895;47.438;18.978;2023-07-13T01:58:39;99615.66;;;22.14;100.00
59110;BME280;44895;47.438;18.978;2023-07-13T02:01:43;99611.66;;;22.08;100.00
59110;BME280;44895;47.438;18.978;2023-07-13T02:04:47;99605.28;;;22.00;100.00
59110;BME280;44895;47.438;18.978;2023-07-13T02:07:52;99611.03;;;21.77;100.00
59110;BME280;44895;47.438;18.978;2023-07-13T02:10:56;99618.53;;;21.76;100.00
59110;BME280;44895;47.438;18.978;2023-07-13T02:14:01;99627.31;;;21.51;100.00
59110;BME280;44895;47.438;18.978;2023-07-13T02:17:06;99626.28;;;21.60;100.00
59110;BME280;44895;47.438;18.978;2023-07-13T02:20:10;99625.09;;;21.64;100.00
59110;BME280;44895;47.438;18.978;2023-07-13T02:23:14;99623.78;;;21.55;100.00
59110;BME280;44895;47.438;18.978;2023-07-13T02:26:18;99618.78;;;21.26;100.00
59110;BME280;44895;47.438;18.978;2023-07-13T02:29:22;99620.94;;;21.44;100.00
59110;BME280;44895;47.438;18.978;2023-07-13T02:32:26;99630.88;;;21.52;100.00
59110;BME280;44895;47.438;18.978;2023-07-13T02:35:30;99641.00;;;21.41;100.00
59110;BME280;44895;47.438;18.978;2023-07-13T02:38:36;99642.47;;;21.27;100.00
59110;BME280;44895;47.438;18.978;2023-07-13T02:41:40;99629.78;;;21.23;100.00
59110;BME280;44895;47.438;18.978;2023-07-13T02:44:44;99628.13;;;21.14;100.00
59110;BME280;44895;47.438;18.978;2023-07-13T02:47:48;99645.56;;;20.92;100.00
59110;BME280;44895;47.438;18.978;2023-07-13T02:50:52;99652.75;;;21.00;100.00
59110;BME280;44895;47.438;18.978;2023-07-13T02:53:57;99660.31;;;21.03;100.00
59110;BME280;44895;47.438;18.978;2023-07-13T02:57:02;99653.00;;;20.61;100.00
59110;BME280;44895;47.438;18.978;2023-07-13T03:00:07;99666.06;;;20.64;100.00
59110;BME280;44895;47.438;18.978;2023-07-13T03:03:13;99669.47;;;20.53;100.00
59110;BME280;44895;47.438;18.978;2023-07-13T03:06:18;99680.69;;;20.68;100.00
59110;BME280;44895;47.438;18.978;2023-07-13T03:09:27;99683.84;;;20.66;100.00
59110;BME280;44895;47.438;18.978;2023-07-13T03:12:33;99689.50;;;20.74;100.00
59110;BME280;44895;47.438;18.978;2023-07-13T03:15:38;99690.72;;;20.80;100.00
59110;BME280;44895;47.438;18.978;2023-07-13T03:18:42;99693.22;;;20.89;100.00
59110;BME280;44895;47.438;18.978;2023-07-13T03:21:48;99684.59;;;20.90;100.00
59110;BME280;44895;47.438;18.978;2023-07-13T03:24:55;99679.06;;;20.90;100.00
59110;BME280;44895;47.438;18.978;2023-07-13T03:27:59;99676.22;;;20.83;100.00
59110;BME280;44895;47.438;18.978;2023-07-13T03:31:10;99677.19;;;20.98;100.00
59110;BME280;44895;47.438;18.978;2023-07-13T03:34:15;99665.63;;;21.19;100.00
59110;BME280;44895;47.438;18.978;2023-07-13T03:37:20;99671.66;;;21.28;100.00
59110;BME280;44895;47.438;18.978;2023-07-13T03:40:26;99685.00;;;21.23;100.00
59110;BME280;44895;47.438;18.978;2023-07-13T03:43:30;99691.50;;;21.38;100.00
59110;BME280;44895;47.438;18.978;2023-07-13T03:46:34;99701.75;;;21.37;100.00
59110;BME280;44895;47.438;18.978;2023-07-13T03:49:39;99689.47;;;21.69;100.00
59110;BME280;44895;47.438;18.978;2023-07-13T03:52:43;99680.53;;;21.79;100.00
59110;BME280;44895;47.438;18.978;2023-07-13T03:55:52;99689.69;;;21.87;100.00
59110;BME280;44895;47.438;18.978;2023-07-13T03:58:57;99686.19;;;21.93;100.00
59110;BME280;44895;47.438;18.978;2023-07-13T04:02:02;99688.50;;;21.88;100.00
59110;BME280;44895;47.438;18.978;2023-07-13T04:05:10;99697.25;;;21.93;100.00
59110;BME280;44895;47.438;18.978;2023-07-13T04:08:14;99719.34;;;21.93;100.00
59110;BME280;44895;47.438;18.978;2023-07-13T04:11:20;99752.88;;;21.88;100.00
59110;BME280;44895;47.438;18.978;2023-07-13T04:14:25;99759.22;;;21.92;100.00
59110;BME280;44895;47.438;18.978;2023-07-13T04:17:29;99760.84;;;21.97;100.00
59110;BME280;44895;47.438;18.978;2023-07-13T04:20:33;99748.97;;;21.93;100.00
59110;BME280;44895;47.438;18.978;2023-07-13T04:23:38;99765.38;;;21.78;100.00
59110;BME280;44895;47.438;18.978;2023-07-13T04:26:42;99766.88;;;21.72;100.00
59110;BME280;44895;47.438;18.978;2023-07-13T04:29:46;99775.59;;;21.74;100.00
59110;BME280;44895;47.438;18.978;2023-07-13T04:32:51;99786.47;;;21.56;100.00
59110;BME280;44895;47.438;18.978;2023-07-13T04:35:57;99791.31;;;21.66;100.00
59110;BME280;44895;47.438;18.978;2023-07-13T04:39:01;99796.78;;;21.63;100.00
59110;BME280;44895;47.438;18.978;2023-07-13T04:42:06;99813.25;;;21.56;100.00
59110;BME280;44895;47.438;18.978;2023-07-13T04:45:10;99804.13;;;21.51;100.00
59110;BME280;44895;47.438;18.978;2023-07-13T04:48:14;99810.28;;;21.41;100.00
59110;BME280;44895;47.438;18.978;2023-07-13T04:51:18;99834.59;;;21.28;100.00
59110;BME280;44895;47.438;18.978;2023-07-13T04:54:22;99845.38;;;21.37;100.00
59110;BME280;44895;47.438;18.978;2023-07-13T04:57:27;99864.91;;;21.25;100.00
59110;BME280;44895;47.438;18.978;2023-07-13T05:00:33;99892.56;;;21.28;100.00
59110;BME280;44895;47.438;18.978;2023-07-13T05:03:37;99943.81;;;21.02;100.00
59110;BME280;44895;47.438;18.978;2023-07-13T05:06:41;99989.69;;;20.88;100.00
59110;BME280;44895;47.438;18.978;2023-07-13T05:09:45;100036.69;;;20.72;100.00
59110;BME280;44895;47.438;18.978;2023-07-13T05:12:50;100060.25;;;20.69;100.00
59110;BME280;44895;47.438;18.978;2023-07-13T05:15:59;100080.34;;;20.50;100.00
59110;BME280;44895;47.438;18.978;2023-07-13T05:19:04;100083.69;;;20.04;100.00
59110;BME280;44895;47.438;18.978;2023-07-13T05:22:07;100083.81;;;20.27;100.00
59110;BME280;44895;47.438;18.978;2023-07-13T05:25:11;100075.72;;;20.18;100.00
59110;BME280;44895;47.438;18.978;2023-07-13T05:28:16;100068.97;;;20.16;100.00
59110;BME280;44895;47.438;18.978;2023-07-13T05:31:20;100047.94;;;19.92;100.00
59110;BME280;44895;47.438;18.978;2023-07-13T05:34:24;100041.81;;;19.82;100.00
59110;BME280;44895;47.438;18.978;2023-07-13T05:37:27;100033.63;;;19.70;100.00
59110;BME280;44895;47.438;18.978;2023-07-13T05:40:32;100033.63;;;19.70;100.00
59110;BME280;44895;47.438;18.978;2023-07-13T05:43:36;100005.91;;;19.63;100.00
59110;BME280;44895;47.438;18.978;2023-07-13T05:46:40;100000.22;;;19.55;100.00
59110;BME280;44895;47.438;18.978;2023-07-13T05:49:44;99985.31;;;19.56;100.00
59110;BME280;44895;47.438;18.978;2023-07-13T05:52:47;99972.69;;;19.55;100.00
59110;BME280;44895;47.438;18.978;2023-07-13T05:55:54;99961.50;;;19.32;100.00
59110;BME280;44895;47.438;18.978;2023-07-13T05:58:58;99961.06;;;19.30;100.00
59110;BME280;44895;47.438;18.978;2023-07-13T06:02:02;99957.88;;;19.28;100.00
59110;BME280;44895;47.438;18.978;2023-07-13T06:05:06;99908.16;;;19.37;100.00
59110;BME280;44895;47.438;18.978;2023-07-13T06:08:10;99806.31;;;19.40;100.00
59110;BME280;44895;47.438;18.978;2023-07-13T06:11:23;99673.03;;;19.22;100.00
59110;BME280;44895;47.438;18.978;2023-07-13T06:14:27;99588.56;;;19.26;100.00
59110;BME280;44895;47.438;18.978;2023-07-13T06:17:31;99572.06;;;19.49;100.00
59110;BME280;44895;47.438;18.978;2023-07-13T06:20:34;99574.66;;;19.62;100.00
59110;BME280;44895;47.438;18.978;2023-07-13T06:23:39;99585.47;;;19.74;100.00
59110;BME280;44895;47.438;18.978;2023-07-13T06:26:43;99545.94;;;19.86;100.00
59110;BME280;44895;47.438;18.978;2023-07-13T06:29:47;99532.28;;;19.93;100.00
59110;BME280;44895;47.438;18.978;2023-07-13T06:32:51;99527.16;;;20.18;100.00
59110;BME280;44895;47.438;18.978;2023-07-13T06:35:56;99535.31;;;20.11;100.00
59110;BME280;44895;47.438;18.978;2023-07-13T06:38:59;99551.81;;;20.38;100.00
59110;BME280;44895;47.438;18.978;2023-07-13T06:42:03;99559.06;;;20.19;100.00
59110;BME280;44895;47.438;18.978;2023-07-13T06:45:08;99546.25;;;20.04;100.00
59110;BME280;44895;47.438;18.978;2023-07-13T06:48:13;99569.63;;;20.44;100.00
59110;BME280;44895;47.438;18.978;2023-07-13T06:51:18;99562.13;;;20.41;100.00
59110;BME280;44895;47.438;18.978;2023-07-13T06:54:22;99566.00;;;20.97;100.00
59110;BME280;44895;47.438;18.978;2023-07-13T06:57:26;99575.13;;;21.80;100.00
59110;BME280;44895;47.438;18.978;2023-07-13T07:00:31;99559.38;;;23.68;100.00
59110;BME280;44895;47.438;18.978;2023-07-13T07:03:35;99584.69;;;23.59;100.00
59110;BME280;44895;47.438;18.978;2023-07-13T07:06:40;99600.50;;;23.48;100.00
59110;BME280;44895;47.438;18.978;2023-07-13T07:09:43;99638.56;;;23.76;100.00
59110;BME280;44895;47.438;18.978;2023-07-13T07:12:47;99740.03;;;24.24;100.00
59110;BME280;44895;47.438;18.978;2023-07-13T07:15:51;99766.63;;;23.16;100.00
59110;BME280;44895;47.438;18.978;2023-07-13T07:18:55;99806.03;;;22.98;100.00
59110;BME280;44895;47.438;18.978;2023-07-13T07:21:59;99813.25;;;23.13;100.00
59110;BME280;44895;47.438;18.978;2023-07-13T07:25:03;99810.47;;;23.13;100.00
59110;BME280;44895;47.438;18.978;2023-07-13T07:28:08;99798.00;;;23.41;100.00
59110;BME280;44895;47.438;18.978;2023-07-13T07:31:12;99795.22;;;23.38;100.00
59110;BME280;44895;47.438;18.978;2023-07-13T07:34:16;99807.56;;;23.58;100.00
59110;BME280;44895;47.438;18.978;2023-07-13T07:37:20;99810.31;;;23.55;100.00
59110;BME280;44895;47.438;18.978;2023-07-13T07:40:25;99803.03;;;24.17;100.00
59110;BME280;44895;47.438;18.978;2023-07-13T07:43:29;99808.97;;;24.04;100.00
59110;BME280;44895;47.438;18.978;2023-07-13T07:46:34;99822.16;;;24.65;100.00
59110;BME280;44895;47.438;18.978;2023-07-13T07:49:38;99817.78;;;25.00;100.00
59110;BME280;44895;47.438;18.978;2023-07-13T07:52:42;99825.09;;;25.86;100.00
59110;BME280;44895;47.438;18.978;2023-07-13T07:55:47;99811.44;;;25.03;100.00
59110;BME280;44895;47.438;18.978;2023-07-13T07:58:51;99824.41;;;25.57;100.00
59110;BME280;44895;47.438;18.978;2023-07-13T08:01:55;99813.38;;;25.39;100.00
59110;BME280;44895;47.438;18.978;2023-07-13T08:04:59;99817.38;;;24.80;100.00
59110;BME280;44895;47.438;18.978;2023-07-13T08:08:03;99800.72;;;24.91;100.00
59110;BME280;44895;47.438;18.978;2023-07-13T08:11:08;99805.09;;;24.78;100.00
59110;BME280;44895;47.438;18.978;2023-07-13T08:14:13;99793.16;;;25.10;100.00
59110;BME280;44895;47.438;18.978;2023-07-13T08:17:17;99801.84;;;25.30;100.00
59110;BME280;44895;47.438;18.978;2023-07-13T08:20:21;99812.22;;;25.15;100.00
59110;BME280;44895;47.438;18.978;2023-07-13T08:23:25;99809.44;;;25.07;100.00
59110;BME280;44895;47.438;18.978;2023-07-13T08:26:29;99806.25;;;25.13;100.00
59110;BME280;44895;47.438;18.978;2023-07-13T08:29:33;99804.25;;;25.20;100.00
59110;BME280;44895;47.438;18.978;2023-07-13T08:32:38;99818.56;;;24.97;100.00
59110;BME280;44895;47.438;18.978;2023-07-13T08:35:41;99822.94;;;24.95;100.00
59110;BME280;44895;47.438;18.978;2023-07-13T08:38:45;99814.59;;;25.13;100.00
59110;BME280;44895;47.438;18.978;2023-07-13T08:41:53;99822.09;;;25.30;100.00
59110;BME280;44895;47.438;18.978;2023-07-13T08:48:32;99824.84;;;25.52;100.00
59110;BME280;44895;47.438;18.978;2023-07-13T08:51:57;99833.56;;;25.54;100.00
59110;BME280;44895;47.438;18.978;2023-07-13T08:55:25;99822.41;;;25.65;100.00
59110;BME280;44895;47.438;18.978;2023-07-13T08:58:33;99824.72;;;25.84;100.00
59110;BME280;44895;47.438;18.978;2023-07-13T09:01:47;99832.63;;;25.93;100.00
59110;BME280;44895;47.438;18.978;2023-07-13T09:08:32;99839.53;;;25.34;100.00
59110;BME280;44895;47.438;18.978;2023-07-13T09:11:56;99839.84;;;25.69;100.00
59110;BME280;44895;47.438;18.978;2023-07-13T09:15:03;99835.13;;;25.62;100.00
59110;BME280;44895;47.438;18.978;2023-07-13T09:18:16;99841.50;;;25.63;100.00
59110;BME280;44895;47.438;18.978;2023-07-13T09:21:31;99831.13;;;25.67;100.00
59110;BME280;44895;47.438;18.978;2023-07-13T09:24:52;99837.47;;;25.78;100.00
59110;BME280;44895;47.438;18.978;2023-07-13T09:28:12;99825.47;;;25.92;100.00
59110;BME280;44895;47.438;18.978;2023-07-13T09:31:47;99848.84;;;26.13;100.00
59110;BME280;44895;47.438;18.978;2023-07-13T09:34:54;99848.47;;;26.07;100.00
59110;BME280;44895;47.438;18.978;2023-07-13T09:38:04;99852.03;;;26.08;100.00
59110;BME280;44895;47.438;18.978;2023-07-13T09:47:59;99844.63;;;26.50;100.00
59110;BME280;44895;47.438;18.978;2023-07-13T09:51:12;99845.13;;;26.34;100.00
59110;BME280;44895;47.438;18.978;2023-07-13T09:54:21;99850.75;;;26.23;100.00
59110;BME280;44895;47.438;18.978;2023-07-13T09:57:28;99858.59;;;26.46;100.00
59110;BME280;44895;47.438;18.978;2023-07-13T10:00:32;99852.03;;;26.75;100.00
59110;BME280;44895;47.438;18.978;2023-07-13T10:03:36;99858.28;;;26.90;100.00
59110;BME280;44895;47.438;18.978;2023-07-13T10:06:46;99866.69;;;26.82;100.00
59110;BME280;44895;47.438;18.978;2023-07-13T10:10:01;99860.34;;;27.27;100.00
59110;BME280;44895;47.438;18.978;2023-07-13T10:13:25;99857.66;;;27.13;100.00
59110;BME280;44895;47.438;18.978;2023-07-13T10:16:32;99856.94;;;27.05;100.00
59110;BME280;44895;47.438;18.978;2023-07-13T10:19:38;99856.50;;;27.10;100.00
59110;BME280;44895;47.438;18.978;2023-07-13T10:22:54;99853.06;;;27.33;100.00
59110;BME280;44895;47.438;18.978;2023-07-13T10:26:01;99854.38;;;27.25;100.00
59110;BME280;44895;47.438;18.978;2023-07-13T10:29:10;99863.13;;;27.27;100.00
59110;BME280;44895;47.438;18.978;2023-07-13T10:32:15;99856.34;;;27.25;100.00
59110;BME280;44895;47.438;18.978;2023-07-13T10:35:21;99863.53;;;27.22;100.00
59110;BME280;44895;47.438;18.978;2023-07-13T10:38:26;99856.41;;;27.21;100.00
59110;BME280;44895;47.438;18.978;2023-07-13T10:41:39;99861.00;;;27.39;100.00
59110;BME280;44895;47.438;18.978;2023-07-13T10:44:44;99846.19;;;27.07;100.00
59110;BME280;44895;47.438;18.978;2023-07-13T10:47:48;99854.25;;;27.36;100.00
59110;BME280;44895;47.438;18.978;2023-07-13T10:50:55;99857.41;;;27.42;100.00
59110;BME280;44895;47.438;18.978;2023-07-13T10:57:19;99851.59;;;27.63;100.00
59110;BME280;44895;47.438;18.978;2023-07-13T11:00:24;99842.91;;;27.58;100.00
59110;BME280;44895;47.438;18.978;2023-07-13T11:03:31;99839.34;;;27.88;100.00
59110;BME280;44895;47.438;18.978;2023-07-13T11:06:40;99842.41;;;27.97;100.00
59110;BME280;44895;47.438;18.978;2023-07-13T11:09:50;99835.34;;;28.20;100.00
59110;BME280;44895;47.438;18.978;2023-07-13T11:12:54;99837.97;;;28.31;100.00
59110;BME280;44895;47.438;18.978;2023-07-13T11:15:58;99848.75;;;28.33;100.00
59110;BME280;44895;47.438;18.978;2023-07-13T11:25:29;99849.19;;;27.96;100.00
59110;BME280;44895;47.438;18.978;2023-07-13T11:28:33;99838.88;;;28.24;100.00
59110;BME280;44895;47.438;18.978;2023-07-13T11:31:39;99838.06;;;28.27;100.00
59110;BME280;44895;47.438;18.978;2023-07-13T11:34:43;99839.13;;;28.34;100.00
59110;BME280;44895;47.438;18.978;2023-07-13T11:37:47;99835.59;;;28.29;100.00
59110;BME280;44895;47.438;18.978;2023-07-13T11:40:54;99836.38;;;28.57;100.00
59110;BME280;44895;47.438;18.978;2023-07-13T11:44:22;99833.28;;;28.52;100.00
59110;BME280;44895;47.438;18.978;2023-07-13T11:47:30;99841.91;;;28.61;100.00
59110;BME280;44895;47.438;18.978;2023-07-13T11:50:34;99847.25;;;28.52;100.00
59110;BME280;44895;47.438;18.978;2023-07-13T11:53:46;99838.38;;;28.84;100.00
59110;BME280;44895;47.438;18.978;2023-07-13T11:56:50;99832.88;;;29.24;100.00
59110;BME280;44895;47.438;18.978;2023-07-13T11:59:55;99828.97;;;29.42;100.00
59110;BME280;44895;47.438;18.978;2023-07-13T12:03:00;99830.59;;;28.95;100.00
59110;BME280;44895;47.438;18.978;2023-07-13T12:06:17;99838.94;;;28.48;100.00
59110;BME280;44895;47.438;18.978;2023-07-13T12:09:26;99832.22;;;28.69;100.00
59110;BME280;44895;47.438;18.978;2023-07-13T12:12:30;99824.38;;;28.60;100.00
59110;BME280;44895;47.438;18.978;2023-07-13T12:18:39;99818.03;;;28.84;100.00
59110;BME280;44895;47.438;18.978;2023-07-13T12:21:44;99822.00;;;28.59;100.00
59110;BME280;44895;47.438;18.978;2023-07-13T12:24:51;99826.28;;;28.40;100.00
59110;BME280;44895;47.438;18.978;2023-07-13T12:27:55;99820.88;;;28.53;100.00
59110;BME280;44895;47.438;18.978;2023-07-13T12:31:06;99821.75;;;28.50;100.00
59110;BME280;44895;47.438;18.978;2023-07-13T12:34:18;99814.41;;;28.59;100.00
59110;BME280;44895;47.438;18.978;2023-07-13T12:37:24;99808.81;;;28.36;100.00
59110;BME280;44895;47.438;18.978;2023-07-13T12:40:33;99814.84;;;28.03;100.00
59110;BME280;44895;47.438;18.978;2023-07-13T12:43:38;99818.94;;;27.95;100.00
59110;BME280;44895;47.438;18.978;2023-07-13T12:47:05;99830.50;;;28.24;100.00
59110;BME280;44895;47.438;18.978;2023-07-13T12:50:20;99826.72;;;28.38;100.00
59110;BME280;44895;47.438;18.978;2023-07-13T12:53:29;99815.78;;;28.47;100.00
59110;BME280;44895;47.438;18.978;2023-07-13T12:56:34;99819.44;;;28.44;100.00
59110;BME280;44895;47.438;18.978;2023-07-13T12:59:39;99813.97;;;28.37;100.00
59110;BME280;44895;47.438;18.978;2023-07-13T13:02:43;99802.84;;;28.34;100.00
59110;BME280;44895;47.438;18.978;2023-07-13T13:05:48;99812.66;;;28.45;100.00
59110;BME280;44895;47.438;18.978;2023-07-13T13:08:54;99815.53;;;28.11;100.00
59110;BME280;44895;47.438;18.978;2023-07-13T13:11:59;99797.19;;;28.37;94.81
59110;BME280;44895;47.438;18.978;2023-07-13T13:15:03;99799.41;;;28.50;94.13
59110;BME280;44895;47.438;18.978;2023-07-13T13:18:15;99782.28;;;28.47;94.02
59110;BME280;44895;47.438;18.978;2023-07-13T13:21:20;99788.34;;;28.42;97.75
59110;BME280;44895;47.438;18.978;2023-07-13T13:24:27;99787.84;;;28.24;100.00
59110;BME280;44895;47.438;18.978;2023-07-13T13:27:31;99791.75;;;28.54;100.00
59110;BME280;44895;47.438;18.978;2023-07-13T13:30:35;99790.16;;;28.80;100.00
59110;BME280;44895;47.438;18.978;2023-07-13T13:33:40;99788.22;;;28.77;97.79
59110;BME280;44895;47.438;18.978;2023-07-13T13:36:49;99780.13;;;28.83;98.41
59110;BME280;44895;47.438;18.978;2023-07-13T13:39:54;99786.50;;;28.83;94.78
59110;BME280;44895;47.438;18.978;2023-07-13T13:42:59;99788.34;;;28.70;89.61
59110;BME280;44895;47.438;18.978;2023-07-13T13:46:15;99790.28;;;28.73;99.79
59110;BME280;44895;47.438;18.978;2023-07-13T13:49:23;99775.47;;;28.76;100.00
59110;BME280;44895;47.438;18.978;2023-07-13T13:52:28;99773.16;;;28.71;98.42
59110;BME280;44895;47.438;18.978;2023-07-13T13:55:32;99782.00;;;28.66;92.34
59110;BME280;44895;47.438;18.978;2023-07-13T13:58:36;99790.44;;;28.62;96.95
59110;BME280;44895;47.438;18.978;2023-07-13T14:01:42;99790.13;;;28.56;99.96
59110;BME280;44895;47.438;18.978;2023-07-13T14:04:50;99781.78;;;28.29;99.58
59110;BME280;44895;47.438;18.978;2023-07-13T14:07:54;99790.31;;;28.18;100.00
59110;BME280;44895;47.438;18.978;2023-07-13T14:11:00;99787.66;;;28.35;100.00
59110;BME280;44895;47.438;18.978;2023-07-13T14:14:04;99790.13;;;28.33;100.00
59110;BME280;44895;47.438;18.978;2023-07-13T14:17:20;99790.50;;;28.31;100.00
59110;BME280;44895;47.438;18.978;2023-07-13T14:20:28;99785.06;;;28.24;100.00
59110;BME280;44895;47.438;18.978;2023-07-13T14:23:33;99798.69;;;28.18;100.00
59110;BME280;44895;47.438;18.978;2023-07-13T14:26:40;99796.72;;;28.19;100.00
59110;BME280;44895;47.438;18.978;2023-07-13T14:29:44;99792.91;;;28.02;100.00
59110;BME280;44895;47.438;18.978;2023-07-13T14:32:48;99799.03;;;27.93;100.00
59110;BME280;44895;47.438;18.978;2023-07-13T14:35:56;99807.44;;;27.89;100.00
59110;BME280;44895;47.438;18.978;2023-07-13T14:39:18;99814.47;;;28.01;100.00
59110;BME280;44895;47.438;18.978;2023-07-13T14:42:23;99828.63;;;27.83;100.00
59110;BME280;44895;47.438;18.978;2023-07-13T14:45:28;99827.94;;;27.75;100.00
59110;BME280;44895;47.438;18.978;2023-07-13T14:48:34;99835.91;;;27.77;100.00
59110;BME280;44895;47.438;18.978;2023-07-13T14:51:38;99833.03;;;27.80;100.00
59110;BME280;44895;47.438;18.978;2023-07-13T14:54:42;99826.97;;;27.89;100.00
59110;BME280;44895;47.438;18.978;2023-07-13T14:57:49;99823.22;;;27.72;100.00
59110;BME280;44895;47.438;18.978;2023-07-13T15:00:54;99818.97;;;27.60;100.00
59110;BME280;44895;47.438;18.978;2023-07-13T15:04:02;99820.28;;;27.48;100.00
59110;BME280;44895;47.438;18.978;2023-07-13T15:07:09;99833.03;;;27.49;100.00
59110;BME280;44895;47.438;18.978;2023-07-13T15:10:23;99850.59;;;27.46;100.00
59110;BME280;44895;47.438;18.978;2023-07-13T15:13:28;99856.31;;;27.28;100.00
59110;BME280;44895;47.438;18.978;2023-07-13T15:16:33;99842.81;;;27.27;100.00
59110;BME280;44895;47.438;18.978;2023-07-13T15:19:39;99853.91;;;27.30;100.00
59110;BME280;44895;47.438;18.978;2023-07-13T15:22:44;99842.47;;;27.21;100.00
59110;BME280;44895;47.438;18.978;2023-07-13T15:25:50;99827.06;;;27.06;100.00
59110;BME280;44895;47.438;18.978;2023-07-13T15:28:55;99825.97;;;26.99;100.00
59110;BME280;44895;47.438;18.978;2023-07-13T15:31:59;99833.53;;;26.95;100.00
59110;BME280;44895;47.438;18.978;2023-07-13T15:35:04;99832.78;;;26.91;100.00
59110;BME280;44895;47.438;18.978;2023-07-13T15:38:38;99822.09;;;26.86;100.00
59110;BME280;44895;47.438;18.978;2023-07-13T15:41:43;99799.53;;;26.73;100.00
59110;BME280;44895;47.438;18.978;2023-07-13T15:44:48;99795.50;;;26.78;100.00
59110;BME280;44895;47.438;18.978;2023-07-13T15:47:53;99813.44;;;26.77;100.00
59110;BME280;44895;47.438;18.978;2023-07-13T15:51:01;99815.81;;;26.71;100.00
59110;BME280;44895;47.438;18.978;2023-07-13T15:54:10;99821.44;;;26.64;100.00
59110;BME280;44895;47.438;18.978;2023-07-13T15:57:16;99822.66;;;26.63;100.00
59110;BME280;44895;47.438;18.978;2023-07-13T16:00:24;99835.81;;;26.59;100.00
59110;BME280;44895;47.438;18.978;2023-07-13T16:03:28;99841.81;;;26.53;100.00
59110;BME280;44895;47.438;18.978;2023-07-13T16:06:35;99857.34;;;26.51;100.00
59110;BME280;44895;47.438;18.978;2023-07-13T16:09:40;99862.88;;;26.54;100.00
59110;BME280;44895;47.438;18.978;2023-07-13T16:12:45;99855.00;;;26.46;100.00
59110;BME280;44895;47.438;18.978;2023-07-13T16:15:51;99864.09;;;26.53;100.00
59110;BME280;44895;47.438;18.978;2023-07-13T16:18:58;99874.47;;;26.46;100.00
59110;BME280;44895;47.438;18.978;2023-07-13T16:22:03;99868.91;;;26.46;100.00
59110;BME280;44895;47.438;18.978;2023-07-13T16:25:20;99868.19;;;26.34;100.00
59110;BME280;44895;47.438;18.978;2023-07-13T16:28:25;99870.59;;;26.32;100.00
59110;BME280;44895;47.438;18.978;2023-07-13T16:31:31;99861.84;;;26.30;100.00